createdAt,value
2022-10-03T00:01:47.925Z,80.40
2022-10-03T00:05:00.292Z,80.40
2022-10-03T00:07:40.462Z,80.20
2022-10-03T00:10:45.021Z,80.20
2022-10-03T00:13:57.904Z,80.00
2022-10-03T00:17:07.492Z,80.10
2022-10-03T00:20:05.107Z,80.10
2022-10-03T00:23:03.072Z,80.30
2022-10-03T00:25:56.075Z,80.20
2022-10-03T00:28:50.651Z,80.10
2022-10-03T00:32:06.999Z,79.80
2022-10-03T00:35:08.254Z,80.20
2022-10-03T00:38:06.720Z,80.00
2022-10-03T00:41:09.369Z,79.80
2022-10-03T00:43:57.498Z,80.00
2022-10-03T00:46:55.038Z,79.70
2022-10-03T00:50:20.264Z,79.80
2022-10-03T00:52:59.168Z,79.90
2022-10-03T00:55:54.171Z,79.50
2022-10-03T00:58:41.406Z,79.70
2022-10-03T01:01:48.412Z,79.80
2022-10-03T01:04:34.457Z,79.90
2022-10-03T01:07:39.113Z,79.50
2022-10-03T01:10:17.905Z,80.10
2022-10-03T01:13:34.034Z,79.70
2022-10-03T01:16:12.571Z,80.00
2022-10-03T01:19:08.775Z,80.00
2022-10-03T01:21:44.478Z,80.10
2022-10-03T01:25:01.797Z,80.00
2022-10-03T01:28:26.479Z,80.40
2022-10-03T01:31:03.175Z,80.40
2022-10-03T01:34:28.003Z,80.20
2022-10-03T01:37:31.321Z,80.70
2022-10-03T01:40:09.021Z,80.20
2022-10-03T01:42:55.001Z,80.20
2022-10-03T01:45:47.769Z,80.10
2022-10-03T01:48:22.899Z,80.40
2022-10-03T01:51:01.625Z,80.10
2022-10-03T01:54:07.555Z,80.00
2022-10-03T01:56:58.583Z,80.10
2022-10-03T01:59:36.279Z,80.00
2022-10-03T02:02:36.334Z,79.90
2022-10-03T02:05:39.520Z,80.00
2022-10-03T02:08:27.576Z,79.80
2022-10-03T02:11:08.490Z,79.80
2022-10-03T02:14:22.855Z,79.70
2022-10-03T02:17:29.485Z,80.10
2022-10-03T02:20:23.873Z,79.70
2022-10-03T02:22:55.667Z,79.90
2022-10-03T02:25:51.892Z,79.70
2022-10-03T02:28:56.519Z,79.80
2022-10-03T02:31:51.281Z,80.00
2022-10-03T02:35:15.087Z,79.90
2022-10-03T02:38:06.994Z,80.10
2022-10-03T02:41:43.697Z,79.60
2022-10-03T02:45:04.432Z,79.80
2022-10-03T02:48:30.678Z,79.60
2022-10-03T02:51:51.622Z,79.90
2022-10-03T02:54:41.582Z,79.80
2022-10-03T02:57:45.737Z,79.60
2022-10-03T03:00:22.626Z,79.70
2022-10-03T03:03:39.654Z,79.60
2022-10-03T03:06:21.420Z,79.90
2022-10-03T03:09:29.571Z,79.60
2022-10-03T03:12:18.454Z,79.90
2022-10-03T03:15:11.828Z,79.60
2022-10-03T03:18:04.846Z,79.80
2022-10-03T03:21:02.165Z,79.80
2022-10-03T03:23:54.819Z,79.80
2022-10-03T03:26:37.775Z,79.60
2022-10-03T03:29:20.028Z,79.60
2022-10-03T03:32:08.613Z,79.60
2022-10-03T03:35:23.140Z,79.60
2022-10-03T03:38:17.079Z,79.80
2022-10-03T03:41:14.250Z,79.90
2022-10-03T03:44:15.123Z,79.80
2022-10-03T03:47:18.918Z,80.00
2022-10-03T03:50:29.498Z,80.10
2022-10-03T03:53:23.375Z,80.10
2022-10-03T03:56:30.863Z,80.00
2022-10-03T03:59:27.587Z,80.20
2022-10-03T04:01:57.247Z,80.00
2022-10-03T04:05:21.152Z,80.00
2022-10-03T04:08:17.169Z,80.10
2022-10-03T04:11:02.835Z,80.00
2022-10-03T04:13:53.866Z,79.90
2022-10-03T04:16:48.239Z,80.00
2022-10-03T04:19:50.965Z,80.10
2022-10-03T04:22:36.563Z,80.30
2022-10-03T04:25:26.402Z,80.10
2022-10-03T04:28:13.508Z,80.30
2022-10-03T04:31:20.652Z,80.20
2022-10-03T04:34:44.509Z,80.20
2022-10-03T04:37:48.468Z,80.40
2022-10-03T04:40:52.582Z,80.40
2022-10-03T04:43:44.096Z,80.40
2022-10-03T04:46:25.357Z,80.30
2022-10-03T04:49:42.938Z,80.30
2022-10-03T04:52:43.077Z,80.60
2022-10-03T04:55:47.561Z,80.30
2022-10-03T04:58:37.119Z,80.50
2022-10-03T05:01:13.225Z,80.40
2022-10-03T05:04:10.712Z,80.20
2022-10-03T05:07:02.692Z,80.50
2022-10-03T05:09:53.829Z,80.20
2022-10-03T05:12:42.299Z,80.60
2022-10-03T05:15:31.170Z,80.30
2022-10-03T05:18:03.952Z,80.60
2022-10-03T05:21:07.953Z,80.40
2022-10-03T05:24:15.700Z,80.50
2022-10-03T05:27:01.731Z,80.70
2022-10-03T05:29:40.135Z,80.40
2022-10-03T05:32:25.746Z,80.50
2022-10-03T05:35:26.352Z,80.40
2022-10-03T05:37:56.455Z,80.50
2022-10-03T05:40:29.727Z,80.40
2022-10-03T05:43:28.698Z,80.50
2022-10-03T05:46:43.547Z,80.50
2022-10-03T05:50:18.212Z,80.50
2022-10-03T05:53:16.468Z,80.60
2022-10-03T05:55:57.270Z,80.40
2022-10-03T05:58:48.870Z,80.20
2022-10-03T06:01:48.221Z,80.40
2022-10-03T06:04:41.160Z,80.30
2022-10-03T06:07:27.462Z,80.40
2022-10-03T06:09:54.426Z,80.50
2022-10-03T06:12:44.024Z,80.30
2022-10-03T06:15:54.704Z,80.40
2022-10-03T06:18:45.894Z,80.60
2022-10-03T06:21:18.926Z,80.40
2022-10-03T06:24:44.467Z,80.40
2022-10-03T06:28:02.674Z,80.60
2022-10-03T06:31:13.291Z,80.50
2022-10-03T06:34:22.021Z,80.50
2022-10-03T06:37:35.602Z,80.50
2022-10-03T06:40:43.065Z,80.60
2022-10-03T06:43:35.153Z,80.50
2022-10-03T06:47:04.233Z,80.50
2022-10-03T06:49:50.215Z,80.70
2022-10-03T06:52:38.395Z,80.40
2022-10-03T06:55:55.389Z,80.50
2022-10-03T06:58:34.373Z,80.70
2022-10-03T07:01:44.360Z,80.60
2022-10-03T07:04:42.053Z,80.80
2022-10-03T07:07:40.122Z,80.60
2022-10-03T07:10:28.292Z,80.50
2022-10-03T07:13:10.145Z,80.50
2022-10-03T07:16:26.442Z,80.50
2022-10-03T07:19:36.597Z,80.50
2022-10-03T07:23:17.858Z,80.50
2022-10-03T07:26:27.766Z,80.50
2022-10-03T07:29:27.228Z,80.60
2022-10-03T07:32:17.831Z,80.60
2022-10-03T07:35:49.398Z,80.70
2022-10-03T07:39:00.138Z,80.60
2022-10-03T07:42:04.564Z,80.60
2022-10-03T07:44:56.063Z,80.70
2022-10-03T07:47:53.373Z,80.70
2022-10-03T07:50:56.709Z,80.80
2022-10-03T07:54:15.772Z,80.90
2022-10-03T07:57:00.713Z,80.70
2022-10-03T07:59:45.446Z,80.90
2022-10-03T08:02:37.690Z,81.00
2022-10-03T08:05:59.905Z,80.70
2022-10-03T08:09:16.827Z,80.50
2022-10-03T08:12:02.471Z,80.00
2022-10-03T08:14:53.066Z,80.10
2022-10-03T08:18:17.073Z,79.90
2022-10-03T08:20:56.320Z,79.70
2022-10-03T08:23:24.363Z,79.40
2022-10-03T08:26:15.191Z,79.60
2022-10-03T08:29:21.037Z,79.20
2022-10-03T08:32:02.492Z,79.40
2022-10-03T08:34:59.790Z,79.60
2022-10-03T08:37:57.564Z,79.30
2022-10-03T08:40:27.615Z,79.10
2022-10-03T08:43:14.107Z,79.30
2022-10-03T08:45:58.731Z,79.10
2022-10-03T08:48:44.726Z,79.20
2022-10-03T08:51:49.775Z,78.50
2022-10-03T08:54:48.000Z,78.00
2022-10-03T08:57:36.343Z,78.00
2022-10-03T09:00:26.420Z,78.20
2022-10-03T09:03:44.742Z,78.10
2022-10-03T09:06:52.793Z,77.70
2022-10-03T09:09:58.324Z,77.80
2022-10-03T09:12:49.271Z,78.10
2022-10-03T09:15:34.355Z,78.10
2022-10-03T09:18:41.949Z,77.90
2022-10-03T09:21:37.091Z,78.20
2022-10-03T09:24:28.868Z,78.20
2022-10-03T09:27:37.412Z,77.70
2022-10-03T09:30:21.377Z,78.20
2022-10-03T09:33:44.458Z,78.90
2022-10-03T09:36:51.746Z,78.20
2022-10-03T09:39:30.127Z,77.70
2022-10-03T09:42:49.271Z,78.10
2022-10-03T09:45:59.954Z,77.30
2022-10-03T09:49:24.310Z,76.90
2022-10-03T09:52:45.323Z,76.70
2022-10-03T09:55:28.573Z,76.50
2022-10-03T09:58:19.794Z,76.90
2022-10-03T10:01:23.786Z,76.90
2022-10-03T10:04:54.369Z,76.90
2022-10-03T10:08:15.917Z,74.60
2022-10-03T10:11:01.396Z,75.20
2022-10-03T10:14:10.967Z,75.70
2022-10-03T10:17:31.660Z,76.80
2022-10-03T10:20:27.594Z,75.60
2022-10-03T10:23:34.713Z,76.70
2022-10-03T10:26:33.971Z,76.40
2022-10-03T10:29:48.252Z,76.70
2022-10-03T10:32:21.586Z,77.10
2022-10-03T10:35:44.934Z,76.50
2022-10-03T10:39:02.876Z,75.40
2022-10-03T10:41:48.596Z,75.10
2022-10-03T10:44:32.701Z,76.30
2022-10-03T10:47:05.777Z,73.50
2022-10-03T10:50:09.286Z,73.50
2022-10-03T10:53:38.468Z,70.40
2022-10-03T10:56:43.649Z,72.10
2022-10-03T11:00:07.975Z,72.20
2022-10-03T11:02:53.047Z,71.50
2022-10-03T11:06:12.245Z,73.30
2022-10-03T11:09:39.641Z,71.70
2022-10-03T11:12:40.929Z,70.30
2022-10-03T11:15:48.201Z,71.40
2022-10-03T11:18:33.795Z,69.50
2022-10-03T11:21:38.482Z,72.10
2022-10-03T11:25:01.344Z,70.80
2022-10-03T11:27:53.098Z,71.70
2022-10-03T11:30:46.898Z,72.40
2022-10-03T11:33:26.069Z,72.40
2022-10-03T11:36:22.829Z,73.10
2022-10-03T11:39:20.474Z,71.60
2022-10-03T11:42:11.623Z,70.40
2022-10-03T11:44:55.526Z,72.50
2022-10-03T11:47:34.971Z,71.00
2022-10-03T11:50:54.264Z,71.30
2022-10-03T11:53:47.220Z,68.30
2022-10-03T11:56:40.552Z,69.00
2022-10-03T11:59:47.965Z,70.40
2022-10-03T12:02:54.689Z,67.40
2022-10-03T12:05:46.392Z,69.40
2022-10-03T12:08:51.569Z,69.40
2022-10-03T12:11:39.098Z,68.30
2022-10-03T12:14:11.464Z,68.20
2022-10-03T12:17:02.702Z,69.70
2022-10-03T12:19:42.451Z,69.00
2022-10-03T12:22:24.061Z,69.50
2022-10-03T12:24:56.081Z,69.30
2022-10-03T12:28:14.365Z,68.50
2022-10-03T12:31:35.937Z,65.70
2022-10-03T12:34:34.007Z,65.40
2022-10-03T12:37:45.169Z,66.80
2022-10-03T12:40:24.272Z,66.50
2022-10-03T12:43:08.658Z,67.70
2022-10-03T12:46:02.149Z,67.00
2022-10-03T12:48:48.039Z,66.00
2022-10-03T12:51:47.894Z,67.40
2022-10-03T12:54:40.463Z,68.00
2022-10-03T12:57:28.859Z,65.80
2022-10-03T13:00:24.264Z,66.20
2022-10-03T13:03:26.095Z,67.30
2022-10-03T13:07:01.764Z,65.30
2022-10-03T13:10:10.852Z,67.90
2022-10-03T13:13:33.760Z,65.50
2022-10-03T13:16:30.289Z,64.40
2022-10-03T13:19:17.994Z,66.10
2022-10-03T13:22:06.241Z,65.90
2022-10-03T13:24:49.505Z,66.40
2022-10-03T13:27:32.366Z,67.00
2022-10-03T13:30:21.964Z,67.50
2022-10-03T13:33:12.709Z,67.60
2022-10-03T13:36:02.623Z,67.40
2022-10-03T13:39:10.278Z,68.00
2022-10-03T13:41:37.837Z,67.70
2022-10-03T13:44:20.774Z,68.70
2022-10-03T13:47:26.530Z,67.60
2022-10-03T13:50:12.659Z,66.40
2022-10-03T13:53:05.267Z,65.20
2022-10-03T13:55:46.265Z,65.00
2022-10-03T13:58:58.923Z,66.10
2022-10-03T14:01:59.689Z,66.90
2022-10-03T14:04:48.694Z,66.40
2022-10-03T14:07:48.663Z,68.00
2022-10-03T14:11:07.633Z,68.40
2022-10-03T14:13:53.553Z,67.80
2022-10-03T14:16:29.281Z,66.90
2022-10-03T14:19:20.699Z,67.90
2022-10-03T14:21:50.654Z,66.20
2022-10-03T14:24:52.388Z,67.50
2022-10-03T14:27:45.591Z,67.10
2022-10-03T14:30:25.208Z,67.90
2022-10-03T14:33:24.316Z,67.50
2022-10-03T14:36:27.643Z,66.70
2022-10-03T14:39:24.216Z,66.80
2022-10-03T14:42:31.395Z,67.90
2022-10-03T14:45:10.008Z,67.60
2022-10-03T14:47:41.212Z,68.40
2022-10-03T14:50:23.047Z,68.30
2022-10-03T14:53:13.551Z,66.70
2022-10-03T14:55:52.415Z,64.70
2022-10-03T14:58:32.662Z,66.60
2022-10-03T15:01:16.235Z,67.30
2022-10-03T15:04:10.170Z,68.40
2022-10-03T15:06:54.815Z,67.30
2022-10-03T15:09:39.005Z,67.60
2022-10-03T15:12:17.545Z,69.40
2022-10-03T15:15:07.809Z,68.40
2022-10-03T15:17:48.715Z,66.50
2022-10-03T15:20:22.894Z,67.10
2022-10-03T15:22:55.502Z,64.50
2022-10-03T15:25:33.875Z,64.50
2022-10-03T15:28:21.290Z,64.40
2022-10-03T15:30:51.832Z,65.90
2022-10-03T15:33:29.284Z,65.20
2022-10-03T15:36:16.125Z,64.20
2022-10-03T15:38:49.689Z,62.50
2022-10-03T15:41:22.448Z,62.00
2022-10-03T15:44:05.430Z,62.00
2022-10-03T15:46:46.467Z,61.70
2022-10-03T15:50:00.528Z,61.00
2022-10-03T15:52:38.692Z,61.40
2022-10-03T15:55:12.443Z,62.80
2022-10-03T15:57:47.113Z,63.30
2022-10-03T16:00:30.596Z,63.50
2022-10-03T16:03:18.247Z,63.00
2022-10-03T16:06:06.469Z,63.50
2022-10-03T16:09:02.502Z,63.50
2022-10-03T16:12:12.134Z,64.10
2022-10-03T16:14:51.625Z,63.10
2022-10-03T16:17:40.387Z,64.30
2022-10-03T16:20:41.731Z,64.00
2022-10-03T16:23:40.639Z,64.60
2022-10-03T16:26:17.755Z,64.70
2022-10-03T16:29:15.497Z,65.20
2022-10-03T16:31:52.499Z,65.30
2022-10-03T16:34:22.639Z,65.30
2022-10-03T16:36:51.451Z,65.50
2022-10-03T16:39:34.628Z,65.60
2022-10-03T16:42:22.443Z,65.40
2022-10-03T16:44:55.479Z,65.70
2022-10-03T16:47:34.471Z,65.80
2022-10-03T16:50:21.931Z,65.80
2022-10-03T16:52:53.294Z,66.10
2022-10-03T16:55:30.314Z,66.20
2022-10-03T16:58:06.145Z,66.30
2022-10-03T17:01:25.941Z,66.40
2022-10-03T17:04:22.615Z,66.30
2022-10-03T17:06:59.885Z,66.00
2022-10-03T17:09:47.711Z,66.50
2022-10-03T17:12:38.828Z,66.70
2022-10-03T17:15:15.056Z,66.80
2022-10-03T17:18:08.382Z,66.90
2022-10-03T17:21:01.145Z,67.00
2022-10-03T17:24:11.241Z,67.10
2022-10-03T17:26:43.612Z,67.30
2022-10-03T17:29:33.123Z,67.50
2022-10-03T17:32:20.713Z,67.70
2022-10-03T17:35:32.855Z,67.70
2022-10-03T17:38:49.391Z,68.10
2022-10-03T17:41:22.855Z,68.00
2022-10-03T17:44:21.052Z,68.00
2022-10-03T17:47:14.650Z,68.40
2022-10-03T17:50:15.625Z,68.50
2022-10-03T17:52:47.285Z,68.50
2022-10-03T17:55:29.567Z,68.40
2022-10-03T17:58:04.514Z,68.60
2022-10-03T18:01:03.214Z,68.70
2022-10-03T18:03:50.532Z,69.30
2022-10-03T18:06:32.567Z,68.90
2022-10-03T18:09:02.135Z,69.00
2022-10-03T18:11:33.905Z,69.20
2022-10-03T18:15:02.295Z,68.80
2022-10-03T18:18:27.456Z,69.30
2022-10-03T18:21:27.838Z,69.30
2022-10-03T18:23:55.812Z,69.20
2022-10-03T18:26:35.169Z,69.20
2022-10-03T18:29:37.577Z,69.50
2022-10-03T18:32:13.014Z,69.80
2022-10-03T18:35:15.430Z,69.60
2022-10-03T18:37:45.118Z,69.30
2022-10-03T18:40:31.545Z,69.50
2022-10-03T18:43:00.973Z,69.30
2022-10-03T18:45:34.894Z,69.30
2022-10-03T18:48:16.675Z,69.60
2022-10-03T18:51:20.668Z,69.80
2022-10-03T18:54:35.090Z,69.60
2022-10-03T18:57:09.398Z,69.90
2022-10-03T18:59:49.831Z,69.70
2022-10-03T19:02:44.469Z,69.90
2022-10-03T19:05:21.024Z,70.30
2022-10-03T19:08:16.609Z,69.90
2022-10-03T19:10:54.103Z,70.00
2022-10-03T19:13:54.108Z,69.90
2022-10-03T19:17:05.119Z,69.90
2022-10-03T19:20:13.873Z,70.10
2022-10-03T19:23:08.283Z,70.10
2022-10-03T19:25:40.722Z,70.10
2022-10-03T19:28:20.306Z,70.20
2022-10-03T19:31:02.712Z,70.30
2022-10-03T19:33:33.112Z,70.60
2022-10-03T19:36:05.068Z,70.40
2022-10-03T19:38:42.889Z,70.30
2022-10-03T19:41:34.678Z,70.30
2022-10-03T19:44:15.225Z,70.50
2022-10-03T19:47:05.684Z,70.50
2022-10-03T19:49:40.276Z,70.70
2022-10-03T19:52:41.533Z,70.60
2022-10-03T19:55:18.937Z,71.00
2022-10-03T19:57:55.056Z,70.60
2022-10-03T20:00:25.598Z,70.60
2022-10-03T20:03:06.601Z,70.70
2022-10-03T20:05:51.318Z,70.80
2022-10-03T20:08:48.699Z,70.90
2022-10-03T20:11:30.554Z,71.00
2022-10-03T20:13:58.823Z,70.90
2022-10-03T20:16:35.865Z,70.90
2022-10-03T20:19:23.113Z,71.10
2022-10-03T20:21:58.829Z,71.30
2022-10-03T20:24:41.431Z,71.40
2022-10-03T20:27:33.124Z,71.70
2022-10-03T20:30:27.549Z,71.50
2022-10-03T20:32:58.472Z,71.40
2022-10-03T20:35:59.995Z,71.30
2022-10-03T20:39:31.547Z,72.00
2022-10-03T20:42:10.806Z,71.40
2022-10-03T20:45:22.921Z,71.50
2022-10-03T20:48:14.914Z,72.20
2022-10-03T20:50:47.706Z,72.40
2022-10-03T20:53:26.008Z,71.90
2022-10-03T20:56:08.350Z,72.50
2022-10-03T20:58:50.765Z,72.70
2022-10-03T21:01:24.744Z,72.60
2022-10-03T21:04:31.913Z,72.60
2022-10-03T21:07:34.363Z,73.00
2022-10-03T21:10:14.522Z,72.60
2022-10-03T21:12:51.352Z,72.80
2022-10-03T21:15:53.852Z,72.80
2022-10-03T21:18:34.268Z,73.70
2022-10-03T21:21:24.284Z,72.90
2022-10-03T21:24:04.357Z,73.20
2022-10-03T21:26:45.643Z,73.00
2022-10-03T21:29:30.441Z,73.10
2022-10-03T21:32:16.035Z,73.60
2022-10-03T21:35:28.271Z,73.20
2022-10-03T21:38:24.705Z,73.80
2022-10-03T21:41:16.203Z,73.20
2022-10-03T21:44:02.286Z,73.20
2022-10-03T21:46:45.386Z,73.70
2022-10-03T21:49:21.510Z,73.50
2022-10-03T21:51:52.180Z,73.60
2022-10-03T21:54:43.453Z,73.50
2022-10-03T21:58:03.767Z,74.10
2022-10-03T22:01:07.520Z,73.80
2022-10-03T22:03:46.305Z,73.80
2022-10-03T22:06:32.831Z,73.30
2022-10-03T22:09:11.855Z,73.80
2022-10-03T22:11:55.179Z,73.60
2022-10-03T22:14:43.746Z,73.50
2022-10-03T22:17:38.456Z,73.50
2022-10-03T22:20:30.017Z,73.70
2022-10-03T22:23:32.219Z,74.00
2022-10-03T22:26:16.483Z,74.00
2022-10-03T22:29:34.431Z,73.70
2022-10-03T22:32:29.095Z,73.80
2022-10-03T22:35:21.866Z,73.20
2022-10-03T22:37:49.388Z,73.70
2022-10-03T22:40:16.913Z,73.20
2022-10-03T22:42:47.708Z,73.40
2022-10-03T22:45:18.541Z,73.50
2022-10-03T22:47:51.366Z,73.60
2022-10-03T22:50:21.829Z,73.70
2022-10-03T22:52:51.993Z,73.70
2022-10-03T22:55:22.427Z,73.70
2022-10-03T22:57:51.756Z,73.70
2022-10-03T23:00:33.436Z,73.80
2022-10-03T23:03:19.129Z,74.20
2022-10-03T23:06:38.432Z,74.10
2022-10-03T23:09:51.399Z,74.40
2022-10-03T23:12:20.769Z,74.00
2022-10-03T23:14:51.799Z,73.60
2022-10-03T23:17:51.238Z,73.70
2022-10-03T23:20:49.213Z,74.10
2022-10-03T23:23:33.357Z,74.00
2022-10-03T23:26:50.231Z,73.60
2022-10-03T23:29:19.951Z,73.90
2022-10-03T23:32:01.212Z,73.50
2022-10-03T23:34:37.689Z,73.90
2022-10-03T23:37:37.460Z,74.10
2022-10-03T23:40:07.693Z,74.70
2022-10-03T23:42:45.816Z,74.30
2022-10-03T23:45:19.561Z,74.80
2022-10-03T23:48:02.576Z,74.70
2022-10-03T23:50:40.003Z,74.90
2022-10-03T23:53:08.053Z,75.00
2022-10-03T23:55:39.963Z,75.10
2022-10-03T23:58:44.347Z,75.20
